DNKN

Mallam Aminu International Airport

Kano, Nigeria
METAR DNKN 211500Z 03005KT CAVOK 41/14 Q1009 NOSIG
Observed Flight Rules
Apr-21 @ 15:00 UTC (37 minutes ago) Visual Flight Rules
Wind Visibility Clouds
30° at 5 knots 10,000+ meters
  • Clear skies
Temperatures Readings
Current 41°C / 106°F
Dewpoint 14°C / 57°F
Humidity 20%
Altimeter 29.79" Hg
Pressure 1009 hPa
Elevation 481
METAR DNKN 211500Z 03005KT CAVOK 41/14 Q1009 NOSIG
Observed Flight Rules
Apr-21 @ 15:00 UTC
(37 minutes ago)
VFR
Wind Visibility
30° at 5 knots 10,000+ meters
Clouds
  • Clear skies
Temperature Dewpoint
41°C / 106°F 14°C / 57°F
Humidity Altimeter Pressure
20% 29.79" Hg 1009 hPa